Time;durP1;ratioP1;P1;durP2;ratioP2;P2;SDS_P1;SDS_P2;PMS_P1;PMS_P2;Temp;Humidity;BMP_temperature;BMP_pressure;BME280_temperature;BME280_humidity;BME280_pressure;Samples;Min_cycle;Max_cycle;Signal;HPM_P1;HPM_P2
2023/04/12 00:01:08;;;;;;;0.68;0.40;;;17.20;67.70;;;;;;5029554;28;20076;-80
2023/04/12 00:03:33;;;;;;;0.22;0.17;;;17.20;67.70;;;;;;5028160;28;20041;-80
2023/04/12 00:06:02;;;;;;;0.30;0.30;;;17.20;67.70;;;;;;5034631;28;20048;-79
2023/04/12 00:08:32;;;;;;;0.30;0.25;;;17.20;67.70;;;;;;5046910;28;20067;-79
2023/04/12 00:10:58;;;;;;;0.20;0.20;;;17.20;67.70;;;;;;5043394;28;20518;-80
2023/04/12 00:13:24;;;;;;;0.40;0.40;;;17.20;67.70;;;;;;5018843;28;20088;-79
2023/04/12 00:15:49;;;;;;;0.30;0.30;;;17.20;67.60;;;;;;5022117;28;20038;-80
2023/04/12 00:18:15;;;;;;;0.10;0.10;;;17.20;67.60;;;;;;5006674;28;20129;-80
2023/04/12 00:20:41;;;;;;;0.30;0.30;;;17.20;67.60;;;;;;5006361;28;20491;-80
2023/04/12 00:23:08;;;;;;;0.20;0.20;;;17.20;67.50;;;;;;4996276;28;20041;-79
2023/04/12 00:25:35;;;;;;;0.30;0.30;;;17.20;67.50;;;;;;5015684;28;20104;-79
2023/04/12 00:28:00;;;;;;;0.35;0.35;;;17.20;67.50;;;;;;5009074;28;20085;-80
2023/04/12 00:30:27;;;;;;;0.68;0.40;;;17.20;67.50;;;;;;5003622;28;20132;-80
2023/04/12 00:32:52;;;;;;;0.30;0.30;;;17.20;67.50;;;;;;4998321;28;20077;-79
2023/04/12 00:35:18;;;;;;;0.20;0.20;;;17.20;67.50;;;;;;5000857;28;20038;-80
2023/04/12 00:37:43;;;;;;;0.30;0.30;;;17.20;67.50;;;;;;4983953;28;20165;-79
2023/04/12 00:40:09;;;;;;;0.28;0.28;;;17.20;67.50;;;;;;4990354;28;20056;-79
2023/04/12 00:42:35;;;;;;;0.20;0.20;;;17.20;67.50;;;;;;4997667;28;20095;-79
2023/04/12 00:45:01;;;;;;;0.20;0.20;;;17.10;67.50;;;;;;5020796;28;20124;-79
2023/04/12 00:47:28;;;;;;;0.20;0.10;;;17.20;67.50;;;;;;4994112;28;20215;-79
2023/04/12 00:49:54;;;;;;;0.20;0.20;;;17.10;67.50;;;;;;5005154;28;20038;-80
2023/04/12 00:52:21;;;;;;;0.17;0.10;;;17.10;67.50;;;;;;5023679;28;20049;-80
2023/04/12 00:54:46;;;;;;;0.40;0.22;;;17.10;67.40;;;;;;5021734;28;20106;-79
2023/04/12 00:57:12;;;;;;;0.30;0.30;;;17.10;67.40;;;;;;5002329;28;20523;-80
2023/04/12 00:59:37;;;;;;;0.40;0.40;;;17.10;67.40;;;;;;5003585;28;20038;-80
2023/04/12 01:02:03;;;;;;;0.35;0.30;;;17.10;67.30;;;;;;5006365;28;20061;-79
2023/04/12 01:04:28;;;;;;;0.10;0.10;;;17.10;67.40;;;;;;4983501;28;20104;-79
2023/04/12 01:07:06;;;;;;;0.25;0.25;;;17.10;67.40;;;;;;4988105;28;20062;-80
2023/04/12 01:09:44;;;;;;;0.20;0.20;;;17.10;67.40;;;;;;4992855;28;20045;-80
2023/04/12 01:12:22;;;;;;;0.32;0.17;;;17.10;67.40;;;;;;5062981;28;20040;-80
2023/04/12 01:14:48;;;;;;;0.35;0.30;;;17.10;67.30;;;;;;5071836;28;20076;-80
2023/04/12 01:17:19;;;;;;;0.20;0.20;;;17.10;67.40;;;;;;5061870;28;20529;-79
2023/04/12 01:19:57;;;;;;;0.30;0.30;;;17.10;67.50;;;;;;5037557;28;20090;-79
2023/04/12 01:22:37;;;;;;;2.05;0.20;;;17.10;67.40;;;;;;5056413;28;20403;-79
2023/04/12 01:25:25;;;;;;;0.10;0.10;;;17.10;67.40;;;;;;5044854;28;20131;-79
2023/04/12 01:27:55;;;;;;;0.20;0.20;;;17.10;67.50;;;;;;5062198;28;20801;-79
2023/04/12 01:30:21;;;;;;;0.10;0.10;;;17.10;67.50;;;;;;5042470;28;20029;-80
2023/04/12 01:32:50;;;;;;;0.10;0.10;;;17.10;67.50;;;;;;5029020;28;20031;-79
2023/04/12 01:35:17;;;;;;;0.30;0.20;;;17.10;67.30;;;;;;5013685;28;20123;-79
2023/04/12 01:37:42;;;;;;;0.20;0.20;;;17.10;67.40;;;;;;5046758;28;20068;-80
2023/04/12 01:40:09;;;;;;;0.82;0.30;;;17.10;67.40;;;;;;5030301;28;20186;-79
2023/04/12 01:42:34;;;;;;;0.32;0.28;;;17.10;67.40;;;;;;5056531;28;20136;-79
2023/04/12 01:45:01;;;;;;;0.40;0.17;;;17.10;67.30;;;;;;5052675;28;20119;-79
2023/04/12 01:47:27;;;;;;;0.20;0.10;;;17.10;67.30;;;;;;5058430;28;20039;-79
2023/04/12 01:50:15;;;;;;;0.38;0.15;;;17.10;67.30;;;;;;5020637;28;20506;-79
2023/04/12 01:52:51;;;;;;;0.20;0.20;;;17.10;67.30;;;;;;5045716;28;20155;-79
2023/04/12 01:55:17;;;;;;;0.10;0.10;;;17.10;67.30;;;;;;5019306;28;20045;-80
2023/04/12 01:57:42;;;;;;;0.20;0.10;;;17.10;67.30;;;;;;5011875;28;20046;-79
2023/04/12 02:00:09;;;;;;;0.38;0.20;;;17.10;67.30;;;;;;5013673;28;20490;-79
2023/04/12 02:02:35;;;;;;;0.30;0.20;;;17.10;67.30;;;;;;5025796;28;20129;-80
2023/04/12 02:05:01;;;;;;;0.20;0.20;;;17.10;67.30;;;;;;5029417;28;20135;-79
2023/04/12 02:07:26;;;;;;;0.30;0.20;;;17.00;67.20;;;;;;5023312;28;20030;-79
2023/04/12 02:09:52;;;;;;;0.57;0.15;;;17.10;67.20;;;;;;5012048;28;20579;-79
2023/04/12 02:12:17;;;;;;;0.15;0.13;;;17.10;67.30;;;;;;5030344;28;20044;-79
2023/04/12 02:14:43;;;;;;;0.10;0.10;;;17.10;67.30;;;;;;5030011;28;20037;-79
2023/04/12 02:17:11;;;;;;;0.38;0.38;;;17.10;67.20;;;;;;5031320;28;20037;-79
2023/04/12 02:19:37;;;;;;;0.38;0.25;;;17.10;67.30;;;;;;5012870;28;20090;-80
2023/04/12 02:22:04;;;;;;;0.20;0.10;;;17.00;67.10;;;;;;5036726;28;20131;-79
2023/04/12 02:24:30;;;;;;;0.20;0.20;;;17.00;67.20;;;;;;5078191;28;20177;-79
2023/04/12 02:26:57;;;;;;;0.20;0.20;;;17.10;67.30;;;;;;5014989;28;20107;-79
2023/04/12 02:29:23;;;;;;;0.10;0.10;;;17.10;67.20;;;;;;4996266;28;20049;-79
2023/04/12 02:31:50;;;;;;;0.10;0.10;;;17.10;67.20;;;;;;5029843;28;20423;-79
2023/04/12 02:34:16;;;;;;;0.10;0.10;;;17.10;67.20;;;;;;5030351;28;20037;-79
2023/04/12 02:36:48;;;;;;;0.30;0.20;;;17.10;67.20;;;;;;5034929;28;20036;-79
2023/04/12 02:39:17;;;;;;;0.52;0.30;;;17.10;67.20;;;;;;5031735;28;20052;-79
2023/04/12 02:41:43;;;;;;;0.45;0.20;;;17.10;67.20;;;;;;5034029;28;20042;-79
2023/04/12 02:44:09;;;;;;;0.30;0.30;;;17.10;67.20;;;;;;5045330;28;20040;-80
2023/04/12 02:46:34;;;;;;;0.20;0.20;;;17.10;67.20;;;;;;5033284;28;20052;-79
2023/04/12 02:49:00;;;;;;;0.20;0.20;;;17.00;67.10;;;;;;5048973;28;20041;-79
2023/04/12 02:51:26;;;;;;;0.20;0.20;;;17.10;67.10;;;;;;5062927;28;20607;-80
2023/04/12 02:53:52;;;;;;;0.30;0.30;;;17.10;67.20;;;;;;5046791;28;20717;-79
2023/04/12 02:56:18;;;;;;;0.17;0.17;;;17.10;67.20;;;;;;5045845;28;20166;-79
2023/04/12 02:58:43;;;;;;;0.20;0.20;;;17.00;67.00;;;;;;5053439;28;20521;-79
2023/04/12 03:01:11;;;;;;;0.20;0.20;;;17.00;67.00;;;;;;5037496;28;20049;-79
2023/04/12 03:03:37;;;;;;;0.30;0.10;;;17.00;67.10;;;;;;5024413;28;20037;-80
2023/04/12 03:06:03;;;;;;;0.10;0.10;;;17.00;67.10;;;;;;5032432;28;20041;-79
2023/04/12 03:08:29;;;;;;;0.20;0.20;;;17.10;67.10;;;;;;5028897;28;20040;-79
2023/04/12 03:10:55;;;;;;;0.20;0.20;;;17.00;66.90;;;;;;5040756;28;20041;-79
2023/04/12 03:13:21;;;;;;;0.20;0.13;;;17.00;67.00;;;;;;5046854;28;20048;-79
2023/04/12 03:15:48;;;;;;;0.10;0.10;;;17.00;67.10;;;;;;5035861;28;20049;-79
2023/04/12 03:18:14;;;;;;;0.20;0.20;;;17.00;67.10;;;;;;5046676;28;20052;-79
2023/04/12 03:20:42;;;;;;;0.30;0.20;;;17.00;67.10;;;;;;5048481;28;20056;-79
2023/04/12 03:23:08;;;;;;;0.17;0.10;;;17.00;67.10;;;;;;5053946;28;20936;-79
2023/04/12 03:25:33;;;;;;;0.25;0.20;;;17.00;67.10;;;;;;5046562;28;20040;-79
2023/04/12 03:27:59;;;;;;;0.30;0.20;;;17.00;67.00;;;;;;5028771;28;20048;-79
2023/04/12 03:30:24;;;;;;;0.20;0.20;;;17.00;67.00;;;;;;5058428;28;20520;-79
2023/04/12 03:32:50;;;;;;;0.10;0.10;;;17.00;67.80;;;;;;5042906;28;20053;-79
2023/04/12 03:35:15;;;;;;;0.20;0.20;;;17.00;67.00;;;;;;5028391;28;20037;-79
2023/04/12 03:37:41;;;;;;;0.20;0.20;;;17.00;67.00;;;;;;5010174;28;20056;-79
2023/04/12 03:40:08;;;;;;;0.13;0.13;;;17.00;67.20;;;;;;5046841;28;20036;-80
2023/04/12 03:42:34;;;;;;;0.30;0.30;;;17.00;67.00;;;;;;5012563;28;20111;-80
2023/04/12 03:45:00;;;;;;;0.30;0.28;;;17.00;67.00;;;;;;5018499;28;20498;-80
2023/04/12 03:47:25;;;;;;;0.00;0.00;;;17.00;66.90;;;;;;5055652;28;20072;-79
2023/04/12 03:49:53;;;;;;;0.25;0.25;;;17.00;67.10;;;;;;5036427;28;20052;-79
2023/04/12 03:52:19;;;;;;;0.10;0.10;;;17.00;67.00;;;;;;5012421;28;20198;-80
2023/04/12 03:54:45;;;;;;;0.10;0.10;;;17.00;67.00;;;;;;5027878;28;20139;-80
2023/04/12 03:57:10;;;;;;;0.10;0.10;;;17.00;66.90;;;;;;5010384;28;20140;-79
2023/04/12 03:59:36;;;;;;;0.20;0.20;;;17.00;66.90;;;;;;5011471;28;20037;-79
2023/04/12 04:02:01;;;;;;;0.17;0.17;;;17.00;66.90;;;;;;5010858;28;20053;-79
2023/04/12 04:04:27;;;;;;;0.10;0.10;;;17.00;67.10;;;;;;5028199;28;20036;-80
2023/04/12 04:06:53;;;;;;;0.20;0.20;;;16.90;67.00;;;;;;5029173;28;20513;-79
2023/04/12 04:09:18;;;;;;;0.22;0.20;;;16.90;66.90;;;;;;5074926;28;20036;-79
2023/04/12 04:11:45;;;;;;;0.38;0.20;;;17.00;66.90;;;;;;5045831;28;20045;-79
2023/04/12 04:14:11;;;;;;;0.20;0.20;;;16.90;66.90;;;;;;5044202;28;20048;-79
2023/04/12 04:16:37;;;;;;;0.10;0.10;;;16.90;66.90;;;;;;5044504;28;20029;-79
2023/04/12 04:19:02;;;;;;;0.10;0.10;;;16.90;66.80;;;;;;5045449;28;20513;-79
2023/04/12 04:21:31;;;;;;;0.20;0.20;;;16.90;66.90;;;;;;5077131;28;20048;-80
2023/04/12 04:23:59;;;;;;;0.28;0.10;;;16.90;67.60;;;;;;5013502;28;20033;-79
2023/04/12 04:26:31;;;;;;;0.30;0.30;;;16.90;67.60;;;;;;5029473;28;20132;-79
2023/04/12 04:29:00;;;;;;;0.20;0.20;;;16.90;67.10;;;;;;5047758;28;20021;-79
2023/04/12 04:31:35;;;;;;;0.10;0.10;;;16.90;66.80;;;;;;5047440;28;20051;-79
2023/04/12 04:34:04;;;;;;;0.30;0.20;;;16.90;66.80;;;;;;5065566;28;20803;-79
2023/04/12 04:36:32;;;;;;;0.22;0.10;;;16.90;66.80;;;;;;5057701;28;20033;-80
2023/04/12 04:38:57;;;;;;;0.30;0.20;;;16.90;66.80;;;;;;5038113;28;20453;-79
2023/04/12 04:41:23;;;;;;;0.40;0.10;;;16.90;66.90;;;;;;5011882;28;20132;-79
2023/04/12 04:43:49;;;;;;;0.10;0.10;;;16.90;66.80;;;;;;5011118;28;20041;-79
2023/04/12 04:46:16;;;;;;;0.20;0.20;;;16.90;66.70;;;;;;5027390;28;20598;-79
2023/04/12 04:48:41;;;;;;;0.20;0.20;;;16.90;66.80;;;;;;5027916;28;20402;-79
2023/04/12 04:51:07;;;;;;;0.10;0.10;;;16.90;66.90;;;;;;5031330;28;20056;-79
2023/04/12 04:53:32;;;;;;;0.30;0.20;;;16.90;66.80;;;;;;5013924;28;20041;-79
2023/04/12 04:55:59;;;;;;;0.40;0.30;;;16.90;66.70;;;;;;5055922;28;20442;-79
2023/04/12 04:58:25;;;;;;;0.10;0.10;;;16.90;67.50;;;;;;5030935;28;20106;-79
2023/04/12 05:00:54;;;;;;;0.10;0.10;;;16.90;66.80;;;;;;5018242;28;20025;-79
2023/04/12 05:03:20;;;;;;;0.50;0.30;;;16.90;66.90;;;;;;5010863;28;20111;-80
2023/04/12 05:05:48;;;;;;;0.38;0.25;;;16.90;66.80;;;;;;5030883;28;20037;-79
2023/04/12 05:08:13;;;;;;;0.30;0.10;;;16.90;66.80;;;;;;5042178;28;20198;-82
2023/04/12 05:10:39;;;;;;;0.47;0.20;;;16.90;66.90;;;;;;5024186;28;20048;-82
2023/04/12 05:13:04;;;;;;;0.52;0.28;;;16.90;66.80;;;;;;5027465;28;20033;-79
2023/04/12 05:15:30;;;;;;;0.88;0.30;;;17.00;66.90;;;;;;5008165;28;20372;-79
2023/04/12 05:17:56;;;;;;;0.70;0.30;;;17.00;66.90;;;;;;5011138;28;20102;-78
2023/04/12 05:20:21;;;;;;;0.47;0.20;;;17.00;66.90;;;;;;5047335;28;20056;-78
2023/04/12 05:22:47;;;;;;;0.30;0.10;;;17.10;67.50;;;;;;5058296;28;20051;-79
2023/04/12 05:25:13;;;;;;;0.30;0.20;;;17.10;67.30;;;;;;5035580;28;20128;-79
2023/04/12 05:27:38;;;;;;;0.50;0.25;;;17.10;67.30;;;;;;5041761;28;20045;-78
2023/04/12 05:30:04;;;;;;;0.30;0.30;;;17.10;67.20;;;;;;5030756;28;20534;-79
2023/04/12 05:32:30;;;;;;;0.20;0.20;;;17.20;68.70;;;;;;5056944;28;20045;-81
2023/04/12 05:34:56;;;;;;;0.40;0.40;;;17.10;68.20;;;;;;5040784;28;20049;-79
2023/04/12 05:37:21;;;;;;;0.20;0.20;;;17.10;69.00;;;;;;5060675;28;20053;-78
2023/04/12 05:39:47;;;;;;;0.40;0.40;;;17.10;69.20;;;;;;5043133;28;20502;-81
2023/04/12 05:42:12;;;;;;;0.40;0.38;;;17.10;69.70;;;;;;5045553;28;20049;-80
2023/04/12 05:44:38;;;;;;;0.95;0.35;;;17.20;70.50;;;;;;5045374;28;20076;-78
2023/04/12 05:47:04;;;;;;;1.17;0.50;;;17.20;71.70;;;;;;5038101;28;20108;-83
2023/04/12 05:49:30;;;;;;;0.60;0.40;;;17.10;71.20;;;;;;5021277;28;20048;-80
2023/04/12 05:51:56;;;;;;;1.88;0.50;;;17.10;71.60;;;;;;5045482;28;20048;-78
2023/04/12 05:54:24;;;;;;;0.65;0.65;;;17.20;72.20;;;;;;5051245;28;20085;-80
2023/04/12 05:56:50;;;;;;;1.23;1.13;;;17.20;72.10;;;;;;5059214;28;20049;-78
2023/04/12 05:59:17;;;;;;;1.35;0.90;;;17.20;73.40;;;;;;5058954;28;20094;-77
2023/04/12 06:01:43;;;;;;;1.23;1.13;;;17.20;72.40;;;;;;5057946;28;20473;-78
2023/04/12 06:04:09;;;;;;;1.73;0.95;;;17.20;72.10;;;;;;5043753;28;20571;-79
2023/04/12 06:06:34;;;;;;;2.05;1.20;;;17.20;72.80;;;;;;5030485;28;20063;-79
2023/04/12 06:09:01;;;;;;;1.70;0.82;;;17.20;72.90;;;;;;5044062;28;20029;-77
2023/04/12 06:11:27;;;;;;;1.38;0.85;;;17.20;72.70;;;;;;5051627;28;20055;-78
2023/04/12 06:13:52;;;;;;;0.85;0.85;;;17.20;73.20;;;;;;5042533;28;20036;-78
2023/04/12 06:16:18;;;;;;;1.35;1.25;;;17.20;73.40;;;;;;5041066;28;20261;-77
2023/04/12 06:18:44;;;;;;;0.80;0.80;;;17.20;73.30;;;;;;5055803;28;20123;-81
2023/04/12 06:21:09;;;;;;;2.30;1.10;;;17.20;74.20;;;;;;5045640;28;20156;-79
2023/04/12 06:23:35;;;;;;;0.82;0.82;;;17.20;74.80;;;;;;5024587;28;20036;-80
2023/04/12 06:26:01;;;;;;;1.10;0.93;;;17.20;74.00;;;;;;5038235;28;20099;-79
2023/04/12 06:28:26;;;;;;;1.98;0.70;;;17.20;74.90;;;;;;5050374;28;20048;-81
2023/04/12 06:30:52;;;;;;;2.20;1.20;;;17.10;74.60;;;;;;5042743;28;20053;-80
2023/04/12 06:33:21;;;;;;;1.63;0.73;;;17.10;74.70;;;;;;5041300;28;20102;-80
2023/04/12 06:35:47;;;;;;;1.13;0.93;;;17.10;74.40;;;;;;5043558;28;20577;-80
2023/04/12 06:38:13;;;;;;;1.10;1.00;;;17.20;74.30;;;;;;5044306;28;20129;-80
2023/04/12 06:40:38;;;;;;;0.80;0.80;;;17.20;74.30;;;;;;5045980;28;20114;-80
2023/04/12 06:43:04;;;;;;;0.40;0.40;;;17.10;73.90;;;;;;5054599;28;20082;-80
2023/04/12 06:45:29;;;;;;;0.55;0.55;;;17.20;74.30;;;;;;5046927;28;20044;-81
2023/04/12 06:47:55;;;;;;;1.20;0.70;;;17.10;74.30;;;;;;5047214;28;20071;-81
2023/04/12 06:50:21;;;;;;;0.57;0.50;;;17.20;74.20;;;;;;5047607;28;20503;-80
2023/04/12 06:52:47;;;;;;;1.40;0.63;;;17.20;74.40;;;;;;5043352;28;20131;-80
2023/04/12 06:55:13;;;;;;;1.08;0.60;;;17.20;74.30;;;;;;5054819;28;20041;-80
2023/04/12 06:57:41;;;;;;;0.52;0.30;;;17.10;74.50;;;;;;5046870;28;20052;-81
2023/04/12 07:00:07;;;;;;;0.40;0.40;;;17.10;74.70;;;;;;5047261;28;20037;-81
2023/04/12 07:02:33;;;;;;;0.40;0.38;;;17.10;74.90;;;;;;5046468;28;20044;-81
2023/04/12 07:04:59;;;;;;;1.42;0.40;;;17.10;74.80;;;;;;5047037;28;20040;-80
2023/04/12 07:07:24;;;;;;;1.23;0.65;;;17.10;74.90;;;;;;5046718;28;20049;-81
2023/04/12 07:09:51;;;;;;;0.63;0.40;;;17.00;75.30;;;;;;5044051;28;20461;-80
2023/04/12 07:12:16;;;;;;;0.50;0.50;;;17.00;74.90;;;;;;5046575;28;21152;-80
2023/04/12 07:14:42;;;;;;;0.60;0.40;;;17.10;75.10;;;;;;5051221;28;20029;-80
2023/04/12 07:17:08;;;;;;;0.68;0.40;;;17.10;75.20;;;;;;5048324;28;20055;-81
2023/04/12 07:19:33;;;;;;;0.88;0.52;;;17.00;75.20;;;;;;5047397;28;20041;-80
2023/04/12 07:21:59;;;;;;;0.90;0.40;;;17.10;75.00;;;;;;5048105;28;20041;-80
2023/04/12 07:24:25;;;;;;;0.40;0.40;;;17.10;74.90;;;;;;5036150;28;20037;-80
2023/04/12 07:26:56;;;;;;;2.08;0.40;;;17.10;75.00;;;;;;5046642;28;20413;-80
2023/04/12 07:29:22;;;;;;;1.23;0.50;;;17.10;74.80;;;;;;5045157;28;20059;-80
2023/04/12 07:31:47;;;;;;;0.85;0.50;;;17.10;75.80;;;;;;5047998;28;20049;-80
2023/04/12 07:34:13;;;;;;;0.50;0.40;;;17.10;74.80;;;;;;5047597;28;20501;-80
2023/04/12 07:36:38;;;;;;;0.45;0.40;;;17.10;75.10;;;;;;5051061;28;20106;-81
2023/04/12 07:39:04;;;;;;;0.40;0.30;;;17.10;75.00;;;;;;5047274;28;20083;-80
2023/04/12 07:41:30;;;;;;;0.43;0.43;;;17.10;74.90;;;;;;5046576;28;20048;-80
2023/04/12 07:43:55;;;;;;;0.65;0.40;;;17.10;74.80;;;;;;5055314;28;20499;-80
2023/04/12 07:46:21;;;;;;;0.20;0.20;;;17.10;75.10;;;;;;5062127;28;20036;-81
2023/04/12 07:48:47;;;;;;;0.43;0.30;;;17.10;75.20;;;;;;5013315;28;20529;-80
2023/04/12 07:51:12;;;;;;;0.40;0.38;;;17.10;75.00;;;;;;5045908;28;20524;-80
2023/04/12 07:53:40;;;;;;;0.25;0.25;;;17.10;75.10;;;;;;5047656;28;20406;-81
2023/04/12 07:56:06;;;;;;;1.98;0.60;;;17.10;74.80;;;;;;5046812;28;20557;-79
2023/04/12 07:58:32;;;;;;;2.00;0.40;;;17.10;75.00;;;;;;5051481;28;20144;-80
2023/04/12 08:00:58;;;;;;;0.63;0.30;;;17.10;75.00;;;;;;5049030;28;20451;-81
2023/04/12 08:03:23;;;;;;;0.75;0.40;;;17.10;75.00;;;;;;5046624;28;20526;-80
2023/04/12 08:05:52;;;;;;;0.40;0.30;;;17.10;74.80;;;;;;5045346;28;20137;-80
2023/04/12 08:08:19;;;;;;;0.32;0.20;;;17.10;74.70;;;;;;5043829;28;20102;-81
2023/04/12 08:10:45;;;;;;;2.30;0.60;;;17.20;74.30;;;;;;5043234;28;20067;-81
2023/04/12 08:13:10;;;;;;;0.40;0.40;;;17.20;74.50;;;;;;5029554;28;20037;-80
2023/04/12 08:15:36;;;;;;;0.47;0.32;;;17.20;74.40;;;;;;5044615;28;20064;-81
2023/04/12 08:18:02;;;;;;;0.40;0.30;;;17.20;74.40;;;;;;5045001;28;20049;-81
2023/04/12 08:20:28;;;;;;;0.55;0.20;;;17.20;74.40;;;;;;5044812;28;20049;-80
2023/04/12 08:22:53;;;;;;;0.30;0.30;;;17.20;74.80;;;;;;5028627;28;20131;-80
2023/04/12 08:25:20;;;;;;;0.38;0.32;;;17.20;74.50;;;;;;5029210;28;20044;-80
2023/04/12 08:27:45;;;;;;;0.38;0.35;;;17.20;74.50;;;;;;5042951;28;20588;-81
2023/04/12 08:30:11;;;;;;;0.20;0.17;;;17.20;74.40;;;;;;5045235;28;20182;-80
2023/04/12 08:32:37;;;;;;;1.05;0.47;;;17.20;74.10;;;;;;5045520;28;20087;-80
2023/04/12 08:35:04;;;;;;;0.25;0.25;;;17.30;74.10;;;;;;5046872;28;20076;-81
2023/04/12 08:37:29;;;;;;;2.08;0.10;;;17.30;74.50;;;;;;5045167;28;20372;-80
2023/04/12 08:39:55;;;;;;;0.40;0.40;;;17.30;75.00;;;;;;5045711;28;20052;-81
2023/04/12 08:42:20;;;;;;;0.98;0.32;;;17.30;75.00;;;;;;5032545;28;20037;-80
2023/04/12 08:44:46;;;;;;;0.68;0.30;;;17.40;74.80;;;;;;5035336;28;20414;-81
2023/04/12 08:47:11;;;;;;;0.30;0.28;;;17.30;74.20;;;;;;5053334;28;20051;-79
2023/04/12 08:49:37;;;;;;;0.70;0.28;;;17.30;72.40;;;;;;5031421;28;20045;-78
2023/04/12 08:52:05;;;;;;;0.28;0.20;;;17.30;72.70;;;;;;5032528;28;20041;-79
2023/04/12 08:54:31;;;;;;;0.17;0.17;;;17.30;72.60;;;;;;5030866;28;20048;-79
2023/04/12 08:56:58;;;;;;;0.25;0.10;;;17.30;72.60;;;;;;5045380;28;20124;-79
2023/04/12 08:59:27;;;;;;;0.35;0.35;;;17.30;73.30;;;;;;5047635;28;20426;-79
2023/04/12 09:01:53;;;;;;;0.28;0.20;;;17.40;73.40;;;;;;5045843;28;20044;-79
2023/04/12 09:04:19;;;;;;;0.90;0.25;;;17.40;72.90;;;;;;5036995;28;20037;-79
2023/04/12 09:06:45;;;;;;;0.15;0.15;;;17.40;73.70;;;;;;5065312;28;20044;-79
2023/04/12 09:09:10;;;;;;;0.20;0.20;;;17.40;73.70;;;;;;5046886;28;20041;-79
2023/04/12 09:11:36;;;;;;;0.30;0.30;;;17.40;72.20;;;;;;5053273;28;20124;-79
2023/04/12 09:14:01;;;;;;;0.35;0.20;;;17.40;71.80;;;;;;5047294;28;20466;-79
2023/04/12 09:16:40;;;;;;;0.43;0.35;;;17.50;71.70;;;;;;5042363;28;20124;-79
2023/04/12 09:19:06;;;;;;;0.50;0.20;;;17.50;71.80;;;;;;5043769;28;20052;-79
2023/04/12 09:21:33;;;;;;;0.55;0.20;;;17.50;71.20;;;;;;5011128;28;20098;-79
2023/04/12 09:24:09;;;;;;;0.30;0.20;;;17.50;71.00;;;;;;5027422;28;20052;-79
2023/04/12 09:26:35;;;;;;;0.28;0.25;;;17.50;71.20;;;;;;5032873;28;20360;-79
2023/04/12 09:29:01;;;;;;;0.32;0.28;;;17.60;71.30;;;;;;5032140;28;20044;-79
2023/04/12 09:31:27;;;;;;;0.20;0.20;;;17.60;71.40;;;;;;5038428;28;20049;-79
2023/04/12 09:33:52;;;;;;;0.20;0.20;;;17.50;71.30;;;;;;5041291;28;20040;-79
2023/04/12 09:36:18;;;;;;;0.30;0.10;;;17.60;71.90;;;;;;5041856;28;20052;-78
2023/04/12 09:39:00;;;;;;;0.30;0.20;;;17.60;71.10;;;;;;5040865;28;20041;-78
2023/04/12 09:41:27;;;;;;;0.28;0.20;;;17.60;71.00;;;;;;5048167;28;20048;-78
2023/04/12 09:43:53;;;;;;;0.30;0.20;;;17.60;71.40;;;;;;5044911;28;20053;-78
2023/04/12 09:46:18;;;;;;;0.10;0.10;;;17.60;71.30;;;;;;5045732;28;20052;-79
2023/04/12 09:49:04;;;;;;;0.13;0.13;;;17.60;71.10;;;;;;5049942;28;20045;-78
2023/04/12 09:51:31;;;;;;;0.52;0.17;;;17.70;71.10;;;;;;5059740;28;20146;-79
2023/04/12 09:54:00;;;;;;;0.20;0.20;;;17.70;70.90;;;;;;5045987;28;20045;-78
2023/04/12 09:56:28;;;;;;;0.38;0.30;;;17.70;71.00;;;;;;5027859;28;20162;-79
2023/04/12 09:58:53;;;;;;;0.70;0.10;;;17.70;71.00;;;;;;5064913;28;20102;-79
2023/04/12 10:01:21;;;;;;;0.65;0.10;;;17.70;70.90;;;;;;5045123;28;20048;-79
2023/04/12 10:03:47;;;;;;;0.10;0.10;;;17.70;70.90;;;;;;5059279;28;20132;-78
2023/04/12 10:06:13;;;;;;;0.10;0.10;;;17.70;71.70;;;;;;5046392;28;20119;-78
2023/04/12 10:08:38;;;;;;;0.10;0.03;;;17.70;71.10;;;;;;5012702;28;20140;-79
2023/04/12 10:11:05;;;;;;;0.17;0.17;;;17.70;70.80;;;;;;5046453;28;20549;-79
2023/04/12 10:13:31;;;;;;;0.40;0.30;;;17.70;70.80;;;;;;5045422;28;20048;-78
2023/04/12 10:15:58;;;;;;;0.10;0.10;;;17.70;70.80;;;;;;5062203;28;20046;-78
2023/04/12 10:18:23;;;;;;;0.30;0.30;;;17.70;70.90;;;;;;5048674;28;20411;-78
2023/04/12 10:20:49;;;;;;;0.43;0.20;;;17.70;70.70;;;;;;5075412;28;20053;-79
2023/04/12 10:23:15;;;;;;;0.28;0.25;;;17.70;70.70;;;;;;5037779;28;20044;-78
2023/04/12 10:25:41;;;;;;;0.50;0.50;;;17.70;70.80;;;;;;5035636;28;20573;-79
2023/04/12 10:28:14;;;;;;;0.20;0.20;;;17.70;70.90;;;;;;5039940;28;20029;-78
2023/04/12 10:30:40;;;;;;;0.20;0.20;;;17.70;71.00;;;;;;5044390;28;20045;-79
2023/04/12 10:33:08;;;;;;;0.17;0.15;;;17.70;70.80;;;;;;5040126;28;20040;-79
2023/04/12 10:36:02;;;;;;;0.15;0.10;;;17.70;70.70;;;;;;5035892;28;20037;-79
2023/04/12 10:38:31;;;;;;;0.30;0.22;;;17.70;70.40;;;;;;5038559;28;20144;-79
2023/04/12 10:41:18;;;;;;;0.10;0.10;;;17.70;70.50;;;;;;4693291;28;10000261;-78
2023/04/12 10:43:44;;;;;;;0.43;0.30;;;17.90;82.60;;;;;;5064609;28;20064;-77
2023/04/12 10:46:39;;;;;;;0.40;0.30;;;17.90;85.30;;;;;;5046741;28;20047;-76
2023/04/12 10:49:08;;;;;;;;;;;17.90;87.10;;;;;;5037933;28;20037;-80
2023/04/12 10:51:34;;;;;;;0.20;0.20;;;17.90;89.60;;;;;;5038782;28;19919;-77
2023/04/12 10:54:17;;;;;;;1.65;0.40;;;17.90;91.20;;;;;;5031924;28;20061;-78
2023/04/12 10:56:44;;;;;;;0.60;0.53;;;17.90;92.70;;;;;;5045308;28;20044;-80
2023/04/12 10:59:13;;;;;;;0.32;0.20;;;17.90;90.50;;;;;;5019702;28;20453;-80
2023/04/12 11:01:39;;;;;;;0.40;0.38;;;17.90;89.10;;;;;;5031232;28;20075;-79
2023/04/12 11:04:08;;;;;;;0.50;0.43;;;18.00;88.80;;;;;;5040427;28;20410;-79
2023/04/12 11:06:46;;;;;;;1.35;0.20;;;18.00;89.10;;;;;;5024354;28;20049;-79
2023/04/12 11:09:18;;;;;;;0.50;0.50;;;18.00;89.30;;;;;;5038925;28;20735;-78
2023/04/12 11:11:44;;;;;;;0.30;0.30;;;18.00;89.80;;;;;;5046088;28;20056;-78
2023/04/12 11:14:10;;;;;;;0.95;0.10;;;17.90;89.30;;;;;;5053963;28;20036;-78
2023/04/12 11:17:01;;;;;;;0.32;0.32;;;17.90;89.30;;;;;;5041825;28;20049;-79
2023/04/12 11:19:26;;;;;;;0.25;0.20;;;17.90;89.60;;;;;;5039837;28;20140;-80
2023/04/12 11:21:52;;;;;;;1.05;0.10;;;18.00;90.00;;;;;;5023549;28;20112;-79
2023/04/12 11:24:17;;;;;;;0.22;0.20;;;17.90;90.20;;;;;;5027739;28;20099;-79
2023/04/12 11:26:44;;;;;;;2.72;0.22;;;17.90;90.30;;;;;;5009259;28;20029;-80
2023/04/12 11:29:11;;;;;;;0.40;0.40;;;17.90;90.40;;;;;;5019549;28;20040;-78
2023/04/12 11:31:37;;;;;;;0.75;0.40;;;17.90;90.60;;;;;;5013813;28;20037;-78
2023/04/12 11:34:03;;;;;;;2.38;0.15;;;17.90;90.60;;;;;;5043922;28;20037;-78
2023/04/12 11:36:29;;;;;;;0.52;0.40;;;17.90;90.70;;;;;;5031052;28;20863;-80
2023/04/12 11:38:55;;;;;;;0.68;0.20;;;17.90;90.90;;;;;;5034426;28;20045;-79
2023/04/12 11:41:21;;;;;;;0.52;0.28;;;17.90;91.20;;;;;;4997307;28;20754;-80
2023/04/12 11:43:46;;;;;;;0.20;0.10;;;17.90;91.10;;;;;;5039270;28;20140;-80
2023/04/12 11:46:12;;;;;;;0.80;0.40;;;17.90;91.30;;;;;;5013931;28;20045;-80
2023/04/12 11:48:38;;;;;;;0.75;0.30;;;17.90;91.40;;;;;;5041875;28;20140;-80
2023/04/12 11:51:20;;;;;;;1.70;0.30;;;17.90;91.40;;;;;;5028553;28;20179;-80
2023/04/12 11:53:45;;;;;;;0.10;0.10;;;17.90;91.40;;;;;;5058162;28;20047;-80
2023/04/12 11:56:11;;;;;;;0.17;0.17;;;17.90;91.50;;;;;;5049213;28;20068;-80
2023/04/12 11:58:36;;;;;;;0.40;0.10;;;17.90;91.60;;;;;;5066925;28;20040;-81
2023/04/12 12:01:02;;;;;;;0.10;0.10;;;17.90;91.70;;;;;;5066718;28;20131;-80
2023/04/12 12:03:28;;;;;;;0.30;0.25;;;17.90;91.80;;;;;;5047891;28;20048;-80
2023/04/12 12:05:53;;;;;;;0.10;0.10;;;17.90;91.90;;;;;;5032106;28;20555;-80
2023/04/12 12:08:19;;;;;;;0.20;0.20;;;18.00;92.00;;;;;;5065479;28;20040;-79
2023/04/12 12:10:45;;;;;;;0.25;0.10;;;17.90;92.10;;;;;;5048664;28;20393;-80
2023/04/12 12:13:13;;;;;;;0.28;0.20;;;18.00;92.20;;;;;;5049909;28;20024;-80
2023/04/12 12:15:43;;;;;;;1.38;0.30;;;18.00;92.30;;;;;;5044293;28;20052;-79
2023/04/12 12:18:09;;;;;;;0.70;0.15;;;18.00;92.40;;;;;;5061109;28;20410;-80
2023/04/12 12:20:42;;;;;;;1.15;0.47;;;17.90;92.50;;;;;;5046280;28;20518;-81
2023/04/12 12:23:07;;;;;;;0.38;0.20;;;18.00;92.70;;;;;;5046292;28;20493;-80
2023/04/12 12:25:33;;;;;;;0.40;0.30;;;17.90;92.80;;;;;;5031957;28;20068;-80
2023/04/12 12:27:59;;;;;;;0.52;0.17;;;18.00;93.10;;;;;;5047375;28;20503;-80
2023/04/12 12:30:24;;;;;;;0.38;0.30;;;17.90;93.10;;;;;;5046764;28;20405;-80
2023/04/12 12:32:53;;;;;;;0.50;0.15;;;18.00;93.30;;;;;;5063518;28;20040;-80
2023/04/12 12:35:18;;;;;;;0.20;0.20;;;18.00;93.40;;;;;;5065602;28;20045;-80
2023/04/12 12:37:49;;;;;;;0.20;0.20;;;18.00;93.60;;;;;;5047449;28;20398;-80
2023/04/12 12:40:15;;;;;;;0.28;0.20;;;18.00;93.60;;;;;;5065722;28;20044;-80
2023/04/12 12:42:50;;;;;;;0.45;0.25;;;18.00;93.70;;;;;;5064733;28;20097;-80
2023/04/12 12:45:19;;;;;;;0.93;0.10;;;18.00;93.80;;;;;;5055292;28;20068;-80
2023/04/12 12:47:54;;;;;;;0.40;0.20;;;18.00;93.80;;;;;;5045664;28;20775;-80